createdAt,value
2019-05-25T00:02:42.718Z,14.20
2019-05-25T00:07:37.301Z,14.00
2019-05-25T00:12:31.896Z,14.10
2019-05-25T00:17:26.466Z,13.90
2019-05-25T00:22:21.060Z,13.80
2019-05-25T00:27:15.637Z,13.80
2019-05-25T00:32:10.250Z,13.80
2019-05-25T00:37:04.887Z,13.80
2019-05-25T00:41:59.480Z,13.70
2019-05-25T00:46:54.057Z,13.70
2019-05-25T00:51:48.680Z,13.90
2019-05-25T00:56:43.245Z,13.70
2019-05-25T01:01:37.839Z,13.50
2019-05-25T01:06:32.418Z,13.50
2019-05-25T01:11:27.013Z,13.40
2019-05-25T01:16:21.667Z,13.40
2019-05-25T01:21:16.265Z,13.50
2019-05-25T01:26:10.891Z,13.60
2019-05-25T01:31:05.559Z,13.50
2019-05-25T01:36:00.132Z,13.50
2019-05-25T01:40:54.734Z,13.50
2019-05-25T01:45:49.312Z,13.40
2019-05-25T01:50:44.090Z,13.50
2019-05-25T01:55:38.673Z,13.50
2019-05-25T02:00:33.410Z,13.50
2019-05-25T02:05:27.993Z,13.40
2019-05-25T02:10:22.580Z,13.40
2019-05-25T02:15:17.396Z,13.40
2019-05-25T02:20:12.568Z,13.20
2019-05-25T02:25:17.511Z,13.10
2019-05-25T02:30:09.439Z,13.00
2019-05-25T02:35:05.875Z,13.20
2019-05-25T02:40:00.471Z,13.20
2019-05-25T02:44:55.054Z,13.20
2019-05-25T02:49:49.651Z,13.00
2019-05-25T02:54:44.231Z,13.00
2019-05-25T02:59:38.828Z,13.00
2019-05-25T03:04:33.545Z,13.00
2019-05-25T03:09:30.423Z,13.00
2019-05-25T03:14:24.994Z,13.00
2019-05-25T03:19:19.609Z,12.90
2019-05-25T03:24:14.197Z,12.90
2019-05-25T03:29:08.793Z,13.00
2019-05-25T03:34:03.391Z,13.10
2019-05-25T03:38:57.970Z,13.00
2019-05-25T03:43:52.549Z,13.00
2019-05-25T03:48:47.154Z,13.10
2019-05-25T03:53:41.722Z,13.20
2019-05-25T03:58:36.388Z,13.30
2019-05-25T04:03:30.966Z,13.40
2019-05-25T04:08:25.646Z,13.60
2019-05-25T04:13:20.229Z,14.10
2019-05-25T04:18:14.824Z,14.30
2019-05-25T04:23:09.394Z,14.40
2019-05-25T04:28:04.068Z,14.50
2019-05-25T04:32:58.656Z,14.40
2019-05-25T04:37:53.252Z,14.30
2019-05-25T04:42:47.841Z,14.30
2019-05-25T04:47:42.444Z,14.40
2019-05-25T04:52:40.988Z,14.30
2019-05-25T04:57:33.485Z,14.20
2019-05-25T05:02:28.047Z,14.30
2019-05-25T05:07:22.637Z,14.30
2019-05-25T05:12:17.211Z,14.40
2019-05-25T05:17:11.815Z,14.50
2019-05-25T05:22:06.420Z,14.60
2019-05-25T05:27:01.090Z,14.80
2019-05-25T05:31:55.732Z,14.90
2019-05-25T05:36:51.734Z,15.00
2019-05-25T05:41:50.724Z,15.10
2019-05-25T05:46:50.036Z,15.10
2019-05-25T05:51:49.192Z,15.10
2019-05-25T05:56:43.813Z,15.10
2019-05-25T06:01:38.381Z,15.10
2019-05-25T06:06:32.989Z,15.20
2019-05-25T06:11:27.571Z,15.20
2019-05-25T06:16:22.181Z,15.00
2019-05-25T06:21:16.762Z,14.90
2019-05-25T06:26:11.440Z,14.60
2019-05-25T06:31:06.073Z,14.20
2019-05-25T06:36:00.689Z,14.20
2019-05-25T06:40:55.273Z,14.20
2019-05-25T06:45:49.879Z,14.20
2019-05-25T06:50:44.461Z,14.20
2019-05-25T06:55:39.068Z,14.30
2019-05-25T07:00:33.678Z,14.60
2019-05-25T07:05:28.364Z,14.80
2019-05-25T07:10:23.019Z,15.10
2019-05-25T07:15:18.404Z,14.90
2019-05-25T07:20:14.018Z,14.90
2019-05-25T07:25:09.634Z,14.90
2019-05-25T07:30:06.591Z,15.20
2019-05-25T07:35:01.953Z,15.50
2019-05-25T07:39:56.556Z,15.80
2019-05-25T07:44:51.148Z,16.10
2019-05-25T07:49:45.722Z,16.40
2019-05-25T07:54:40.392Z,16.90
2019-05-25T07:59:34.975Z,16.90
2019-05-25T08:04:29.580Z,17.20
2019-05-25T08:09:24.156Z,17.40
2019-05-25T08:14:18.830Z,17.30
2019-05-25T08:19:13.477Z,17.60
2019-05-25T08:24:08.146Z,18.00
2019-05-25T08:29:02.790Z,18.30
2019-05-25T08:33:57.405Z,18.70
2019-05-25T08:38:54.815Z,19.40
2019-05-25T08:43:48.331Z,19.50
2019-05-25T08:48:42.942Z,20.00
2019-05-25T08:53:41.794Z,20.20
2019-05-25T08:58:47.616Z,20.70
2019-05-25T09:03:30.172Z,20.80
2019-05-25T09:08:24.762Z,20.70
2019-05-25T09:13:19.395Z,20.80
2019-05-25T09:18:14.020Z,20.70
2019-05-25T09:23:08.615Z,20.70
2019-05-25T09:28:03.212Z,20.60
2019-05-25T09:32:57.895Z,21.10
2019-05-25T09:37:52.482Z,20.80
2019-05-25T09:42:47.201Z,20.30
2019-05-25T09:47:41.927Z,20.90
2019-05-25T09:52:36.535Z,21.50
2019-05-25T09:57:31.145Z,21.20
2019-05-25T10:02:25.810Z,21.70
2019-05-25T10:07:20.405Z,22.00
2019-05-25T10:12:16.323Z,22.20
2019-05-25T10:17:11.290Z,22.50
2019-05-25T10:22:06.744Z,22.60
2019-05-25T10:27:01.378Z,22.40
2019-05-25T10:31:55.971Z,22.60
2019-05-25T10:36:50.634Z,22.60
2019-05-25T10:41:45.238Z,22.70
2019-05-25T10:46:39.835Z,23.10
2019-05-25T10:51:34.424Z,23.00
2019-05-25T10:56:29.023Z,23.30
2019-05-25T11:01:23.609Z,23.50
2019-05-25T11:06:18.202Z,23.40
2019-05-25T11:11:12.877Z,23.50
2019-05-25T11:16:07.486Z,23.60
2019-05-25T11:21:02.075Z,23.80
2019-05-25T11:25:56.665Z,23.40
2019-05-25T11:30:51.270Z,23.30
2019-05-25T11:35:45.940Z,23.20
2019-05-25T11:40:40.546Z,23.50
2019-05-25T11:45:35.210Z,23.90
2019-05-25T11:50:29.798Z,24.10
2019-05-25T11:55:24.539Z,24.30
2019-05-25T12:00:25.259Z,24.60
2019-05-25T12:05:18.231Z,24.80
2019-05-25T12:10:13.461Z,25.00
2019-05-25T12:15:09.571Z,24.70
2019-05-25T12:20:05.673Z,24.40
2019-05-25T12:25:00.273Z,23.60
2019-05-25T12:29:54.855Z,22.80
2019-05-25T12:34:49.450Z,21.60
2019-05-25T12:39:44.040Z,21.10
2019-05-25T12:44:38.676Z,20.50
2019-05-25T12:49:49.481Z,20.10
2019-05-25T12:54:29.573Z,19.90
2019-05-25T12:59:24.160Z,19.60
2019-05-25T13:04:18.764Z,19.10
2019-05-25T13:09:13.354Z,18.80
2019-05-25T13:14:14.509Z,18.50
2019-05-25T13:19:04.530Z,18.20
2019-05-25T13:23:59.129Z,18.00
2019-05-25T13:28:53.708Z,17.60
2019-05-25T13:33:48.310Z,16.90
2019-05-25T13:38:42.890Z,15.90
2019-05-25T13:43:37.542Z,15.50
2019-05-25T13:48:32.093Z,15.40
2019-05-25T13:53:26.680Z,15.70
2019-05-25T13:58:21.258Z,16.00
2019-05-25T14:03:15.903Z,16.20
2019-05-25T14:08:10.494Z,16.10
2019-05-25T14:13:05.155Z,16.30
2019-05-25T14:18:00.169Z,16.80
2019-05-25T14:22:54.781Z,17.20
2019-05-25T14:27:49.346Z,17.40
2019-05-25T14:32:44.008Z,17.70
2019-05-25T14:37:38.664Z,17.80
2019-05-25T14:42:33.280Z,17.80
2019-05-25T14:47:27.844Z,18.00
2019-05-25T14:52:22.462Z,18.00
2019-05-25T14:57:17.066Z,17.90
2019-05-25T15:02:11.677Z,17.60
2019-05-25T15:07:06.426Z,17.60
2019-05-25T15:12:01.112Z,17.50
2019-05-25T15:16:55.701Z,17.50
2019-05-25T15:21:50.371Z,17.40
2019-05-25T15:26:45.002Z,17.40
2019-05-25T15:31:39.672Z,17.10
2019-05-25T15:36:34.262Z,17.00
2019-05-25T15:41:28.866Z,17.10
2019-05-25T15:46:23.447Z,17.00
2019-05-25T15:51:18.055Z,17.00
2019-05-25T15:56:12.636Z,17.20
2019-05-25T16:01:07.308Z,17.30
2019-05-25T16:06:01.893Z,17.40
2019-05-25T16:10:56.493Z,17.50
2019-05-25T16:15:51.093Z,17.50
2019-05-25T16:20:45.698Z,17.70
2019-05-25T16:25:40.286Z,17.80
2019-05-25T16:30:34.901Z,17.90
2019-05-25T16:35:29.480Z,18.10
2019-05-25T16:40:24.613Z,18.10
2019-05-25T16:45:20.902Z,18.30
2019-05-25T16:50:16.729Z,18.40
2019-05-25T16:55:11.693Z,18.40
2019-05-25T17:00:09.804Z,18.60
2019-05-25T17:05:04.630Z,18.40
2019-05-25T17:09:59.230Z,18.50
2019-05-25T17:14:53.806Z,18.30
2019-05-25T17:19:48.403Z,18.10
2019-05-25T17:24:42.984Z,17.90
2019-05-25T17:29:37.584Z,17.90
2019-05-25T17:34:32.293Z,17.60
2019-05-25T17:39:26.886Z,17.20
2019-05-25T17:44:21.473Z,16.80
2019-05-25T17:49:16.087Z,16.70
2019-05-25T17:54:10.675Z,16.50
2019-05-25T17:59:05.359Z,16.10
2019-05-25T18:04:07.304Z,16.10
2019-05-25T18:08:56.291Z,15.80
2019-05-25T18:13:50.879Z,15.80
2019-05-25T18:18:45.481Z,15.70
2019-05-25T18:23:40.100Z,15.40
2019-05-25T18:28:34.744Z,15.50
2019-05-25T18:33:29.316Z,15.50
2019-05-25T18:38:23.906Z,15.30
2019-05-25T18:43:18.558Z,15.10
2019-05-25T18:48:13.160Z,15.10
2019-05-25T18:53:07.751Z,15.10
2019-05-25T18:58:02.482Z,15.20
2019-05-25T19:02:57.143Z,15.20
2019-05-25T19:07:51.744Z,15.30
2019-05-25T19:12:46.324Z,15.30
2019-05-25T19:17:41.029Z,15.20
2019-05-25T19:22:35.609Z,15.20
2019-05-25T19:27:30.210Z,15.20
2019-05-25T19:32:24.805Z,15.30
2019-05-25T19:37:19.663Z,15.30
2019-05-25T19:42:14.461Z,15.30
2019-05-25T19:47:09.069Z,15.30
2019-05-25T19:52:04.849Z,15.30
2019-05-25T19:56:59.446Z,15.20
2019-05-25T20:01:54.053Z,15.20
2019-05-25T20:06:48.677Z,15.20
2019-05-25T20:11:43.283Z,15.00
2019-05-25T20:16:37.911Z,14.90
2019-05-25T20:21:32.479Z,14.90
2019-05-25T20:26:27.158Z,14.90
2019-05-25T20:31:21.750Z,14.80
2019-05-25T20:36:16.357Z,14.50
2019-05-25T20:41:10.935Z,14.50
2019-05-25T20:46:05.615Z,14.30
2019-05-25T20:51:00.216Z,14.20
2019-05-25T20:55:54.808Z,14.20
2019-05-25T21:00:49.385Z,14.10
2019-05-25T21:05:50.162Z,13.90
2019-05-25T21:10:40.299Z,13.80
2019-05-25T21:15:34.911Z,13.60
2019-05-25T21:20:29.494Z,13.40
2019-05-25T21:25:24.118Z,13.30
2019-05-25T21:30:20.333Z,13.10
2019-05-25T21:35:15.532Z,13.10
2019-05-25T21:40:11.062Z,13.10
2019-05-25T21:45:07.492Z,13.10
2019-05-25T21:50:02.083Z,13.10
2019-05-25T21:54:56.690Z,13.20
2019-05-25T21:59:51.280Z,13.30
2019-05-25T22:04:45.894Z,13.30
2019-05-25T22:09:40.646Z,13.40
2019-05-25T22:14:35.323Z,13.30
2019-05-25T22:19:29.915Z,13.10
2019-05-25T22:24:24.522Z,13.00
2019-05-25T22:29:19.102Z,12.90
2019-05-25T22:34:13.782Z,12.90
2019-05-25T22:39:09.640Z,12.90
2019-05-25T22:44:05.486Z,12.90
2019-05-25T22:49:00.069Z,12.90
2019-05-25T22:53:54.664Z,12.90
2019-05-25T22:58:49.266Z,12.80
2019-05-25T23:03:43.879Z,12.70
2019-05-25T23:08:38.821Z,12.60
2019-05-25T23:13:33.615Z,12.50
2019-05-25T23:18:28.248Z,12.40
2019-05-25T23:23:22.853Z,12.40
2019-05-25T23:28:17.448Z,12.40
2019-05-25T23:33:12.827Z,12.50
2019-05-25T23:38:07.431Z,12.60
2019-05-25T23:43:02.037Z,12.70
2019-05-25T23:47:56.621Z,12.80
2019-05-25T23:52:51.403Z,12.90
2019-05-25T23:57:46.040Z,13.00
